Time;durP1;ratioP1;P1;durP2;ratioP2;P2;SDS_P1;SDS_P2;PMS_P1;PMS_P2;Temp;Humidity;BMP_temperature;BMP_pressure;BME280_temperature;BME280_humidity;BME280_pressure;Samples;Min_cycle;Max_cycle;Signal;HPM_P1;HPM_P2
2023/07/26 00:00:52;;;;;;;0.98;0.35;;;14.20;99.90;;;;;;5074225;28;20064;-75
2023/07/26 00:03:17;;;;;;;3.20;0.52;;;14.10;99.90;;;;;;5056803;28;20025;-75
2023/07/26 00:05:43;;;;;;;3.35;0.08;;;14.00;99.90;;;;;;5074187;28;20074;-75
2023/07/26 00:08:08;;;;;;;0.50;0.10;;;14.00;99.90;;;;;;5056264;28;20032;-75
2023/07/26 00:10:34;;;;;;;2.58;0.00;;;13.90;99.90;;;;;;5074618;28;20108;-75
2023/07/26 00:13:00;;;;;;;0.98;0.10;;;13.90;99.90;;;;;;5074531;28;20506;-75
2023/07/26 00:15:25;;;;;;;0.77;0.00;;;13.70;99.90;;;;;;5055958;28;20115;-75
2023/07/26 00:17:51;;;;;;;2.28;0.25;;;13.70;99.90;;;;;;5073874;28;20028;-75
2023/07/26 00:20:16;;;;;;;5.00;0.50;;;13.60;99.90;;;;;;5073818;28;20039;-75
2023/07/26 00:22:42;;;;;;;0.68;0.00;;;13.50;99.90;;;;;;5055965;28;20078;-75
2023/07/26 00:25:08;;;;;;;1.23;0.00;;;13.40;99.90;;;;;;5073705;28;20032;-75
2023/07/26 00:27:36;;;;;;;3.92;0.35;;;13.30;99.90;;;;;;5073706;28;20482;-75
2023/07/26 00:30:02;;;;;;;1.30;0.05;;;13.30;99.90;;;;;;5073676;28;20028;-75
2023/07/26 00:32:29;;;;;;;1.90;0.00;;;13.20;99.90;;;;;;5074126;28;20036;-75
2023/07/26 00:34:54;;;;;;;1.80;0.10;;;13.20;99.90;;;;;;5074252;28;20074;-75
2023/07/26 00:37:20;;;;;;;0.98;0.00;;;13.10;99.90;;;;;;5074079;28;20029;-75
2023/07/26 00:39:47;;;;;;;0.20;0.00;;;13.10;99.90;;;;;;5073440;28;20059;-75
2023/07/26 00:42:17;;;;;;;0.90;0.10;;;13.10;99.90;;;;;;5073477;28;20103;-75
2023/07/26 00:44:43;;;;;;;0.75;0.38;;;13.10;99.90;;;;;;5073611;28;20074;-75
2023/07/26 00:47:09;;;;;;;1.15;0.10;;;13.00;99.90;;;;;;5055549;28;20032;-75
2023/07/26 00:49:34;;;;;;;0.88;0.00;;;13.00;99.90;;;;;;5055448;28;20021;-75
2023/07/26 00:52:00;;;;;;;3.25;0.75;;;13.00;99.90;;;;;;5055467;28;20028;-75
2023/07/26 00:54:26;;;;;;;0.25;0.00;;;13.00;99.90;;;;;;5073691;28;20601;-75
2023/07/26 00:56:52;;;;;;;3.30;0.20;;;13.00;99.90;;;;;;5073137;28;20029;-75
2023/07/26 00:59:18;;;;;;;1.95;0.20;;;13.00;99.90;;;;;;5073253;28;20024;-75
2023/07/26 01:01:44;;;;;;;4.93;0.10;;;12.90;99.90;;;;;;5072686;28;20392;-75
2023/07/26 01:04:09;;;;;;;1.38;0.20;;;12.80;99.90;;;;;;5055166;28;20032;-75
2023/07/26 01:06:40;;;;;;;0.20;0.00;;;12.80;99.90;;;;;;5073137;28;20021;-75
2023/07/26 01:09:19;;;;;;;0.52;0.10;;;12.70;99.90;;;;;;5055151;28;20052;-75
2023/07/26 01:11:51;;;;;;;0.20;0.00;;;12.70;99.90;;;;;;5073223;28;20017;-75
2023/07/26 01:14:33;;;;;;;0.43;0.00;;;12.60;99.90;;;;;;5073299;28;20021;-75
2023/07/26 01:16:58;;;;;;;1.20;0.03;;;12.50;99.90;;;;;;5073688;28;20025;-75
2023/07/26 01:19:24;;;;;;;2.50;0.28;;;12.50;99.90;;;;;;5055000;28;20476;-75
2023/07/26 01:21:50;;;;;;;1.90;0.00;;;12.50;99.90;;;;;;5073046;28;20030;-75
2023/07/26 01:24:15;;;;;;;0.20;0.00;;;12.40;99.90;;;;;;5054878;28;20021;-75
2023/07/26 01:26:41;;;;;;;1.45;0.08;;;12.40;99.90;;;;;;5072981;28;20029;-75
2023/07/26 01:29:06;;;;;;;1.17;0.20;;;12.40;99.90;;;;;;5072915;28;20107;-75
2023/07/26 01:31:32;;;;;;;0.20;0.10;;;12.30;99.90;;;;;;5072897;28;20056;-75
2023/07/26 01:34:00;;;;;;;0.85;0.10;;;12.30;99.90;;;;;;5054829;28;20025;-75
2023/07/26 01:36:29;;;;;;;2.08;0.03;;;12.30;99.90;;;;;;5072942;28;20024;-75
2023/07/26 01:38:57;;;;;;;0.35;0.10;;;12.20;99.90;;;;;;5072864;28;20017;-75
2023/07/26 01:41:23;;;;;;;1.05;0.10;;;12.20;99.90;;;;;;5054839;28;20025;-75
2023/07/26 01:43:49;;;;;;;0.80;0.20;;;12.10;99.90;;;;;;5072833;28;20024;-75
2023/07/26 01:46:15;;;;;;;0.55;0.10;;;12.10;99.90;;;;;;5054833;28;20020;-75
2023/07/26 01:48:41;;;;;;;0.70;0.10;;;12.00;99.90;;;;;;5072839;28;20066;-76
2023/07/26 01:51:07;;;;;;;0.57;0.20;;;12.00;99.90;;;;;;5054829;28;20507;-77
2023/07/26 01:53:33;;;;;;;0.17;0.10;;;11.90;99.90;;;;;;5072807;28;20056;-77
2023/07/26 01:56:01;;;;;;;0.20;0.10;;;11.90;99.90;;;;;;5054761;28;20376;-77
2023/07/26 01:58:26;;;;;;;1.80;0.20;;;11.80;99.90;;;;;;5054565;28;20040;-77
2023/07/26 02:00:52;;;;;;;1.30;0.22;;;11.80;99.90;;;;;;5072661;28;20395;-77
2023/07/26 02:03:18;;;;;;;4.82;0.28;;;11.70;99.90;;;;;;5072629;28;20012;-76
2023/07/26 02:05:44;;;;;;;0.60;0.10;;;11.70;99.90;;;;;;5054806;28;20035;-76
2023/07/26 02:08:10;;;;;;;3.08;0.25;;;11.70;99.90;;;;;;5054683;28;20021;-76
2023/07/26 02:10:36;;;;;;;1.95;0.10;;;11.60;99.90;;;;;;5054965;28;20028;-76
2023/07/26 02:13:01;;;;;;;1.05;0.20;;;11.60;99.90;;;;;;5055201;28;20030;-77
2023/07/26 02:15:27;;;;;;;1.55;0.20;;;11.60;99.90;;;;;;5076809;28;20028;-77
2023/07/26 02:17:53;;;;;;;1.30;0.25;;;11.60;99.90;;;;;;5058336;28;20024;-77
2023/07/26 02:20:19;;;;;;;3.70;0.17;;;11.60;99.90;;;;;;5076139;28;20024;-77
2023/07/26 02:22:45;;;;;;;0.85;0.22;;;11.60;99.90;;;;;;5058170;28;20502;-77
2023/07/26 02:25:11;;;;;;;2.50;0.22;;;11.50;99.90;;;;;;5076016;28;20030;-77
2023/07/26 02:27:37;;;;;;;1.70;0.28;;;11.50;99.90;;;;;;5058454;28;20531;-77
2023/07/26 02:30:03;;;;;;;2.72;0.38;;;11.50;99.90;;;;;;5076645;28;20078;-77
2023/07/26 02:32:29;;;;;;;0.38;0.17;;;11.50;99.90;;;;;;5075851;28;20115;-76
2023/07/26 02:34:55;;;;;;;3.50;0.20;;;11.50;99.90;;;;;;5076146;28;20028;-77
2023/07/26 02:37:20;;;;;;;0.60;0.40;;;11.50;99.90;;;;;;5058794;28;20025;-77
2023/07/26 02:39:48;;;;;;;2.17;0.20;;;11.50;99.90;;;;;;5057826;28;20054;-77
2023/07/26 02:42:14;;;;;;;2.05;0.40;;;11.40;99.90;;;;;;5058631;28;20020;-76
2023/07/26 02:44:40;;;;;;;1.40;0.35;;;11.40;99.90;;;;;;5075918;28;20028;-76
2023/07/26 02:47:05;;;;;;;1.52;0.17;;;11.40;99.90;;;;;;5058140;28;20013;-77
2023/07/26 02:49:31;;;;;;;1.92;0.50;;;11.40;99.90;;;;;;5076210;28;20104;-77
2023/07/26 02:51:57;;;;;;;6.93;0.73;;;11.40;99.90;;;;;;5075674;28;20032;-77
2023/07/26 02:54:23;;;;;;;1.17;0.20;;;11.30;99.90;;;;;;5075546;28;20033;-77
2023/07/26 02:56:49;;;;;;;1.02;0.30;;;11.30;99.90;;;;;;5075476;28;20023;-76
2023/07/26 02:59:15;;;;;;;2.67;0.28;;;;;;;;;;5076016;28;20027;-77
2023/07/26 03:01:40;;;;;;;2.25;0.40;;;11.30;99.90;;;;;;5075431;28;20021;-76
2023/07/26 03:04:06;;;;;;;2.58;0.30;;;11.30;99.90;;;;;;5075306;28;20028;-77
2023/07/26 03:06:32;;;;;;;1.48;0.30;;;11.60;99.90;;;;;;5075350;28;20025;-76
2023/07/26 03:08:57;;;;;;;4.53;0.13;;;11.20;99.90;;;;;;5075389;28;20552;-76
2023/07/26 03:11:23;;;;;;;0.93;0.32;;;11.20;99.90;;;;;;5057334;28;20077;-77
2023/07/26 03:13:48;;;;;;;1.40;0.20;;;11.10;99.90;;;;;;5075122;28;20135;-77
2023/07/26 03:16:17;;;;;;;1.55;0.63;;;11.10;99.90;;;;;;5057258;28;20480;-76
2023/07/26 03:18:43;;;;;;;0.88;0.60;;;11.10;99.90;;;;;;5075150;28;20503;-77
2023/07/26 03:21:09;;;;;;;1.88;0.52;;;11.50;99.90;;;;;;5075097;28;20024;-76
2023/07/26 03:23:34;;;;;;;1.55;0.50;;;11.10;99.90;;;;;;5075016;28;20423;-76
2023/07/26 03:26:01;;;;;;;0.38;0.20;;;11.10;99.90;;;;;;5074456;28;20021;-77
2023/07/26 03:28:27;;;;;;;0.93;0.30;;;11.10;99.90;;;;;;5075145;28;20108;-77
2023/07/26 03:30:52;;;;;;;1.73;0.70;;;11.10;99.90;;;;;;5074953;28;20499;-77
2023/07/26 03:33:18;;;;;;;0.98;0.45;;;11.10;99.90;;;;;;5056838;28;20028;-77
2023/07/26 03:35:44;;;;;;;1.70;0.57;;;11.10;99.90;;;;;;5074812;28;20388;-77
2023/07/26 03:38:09;;;;;;;2.33;0.88;;;11.10;99.90;;;;;;5074712;28;20032;-77
2023/07/26 03:40:35;;;;;;;8.93;1.40;;;11.10;99.90;;;;;;5074807;28;20100;-76
2023/07/26 03:43:00;;;;;;;1.15;0.50;;;11.20;99.90;;;;;;5056749;28;20028;-76
2023/07/26 03:45:27;;;;;;;1.48;0.55;;;11.20;99.90;;;;;;5056670;28;20025;-76
2023/07/26 03:47:53;;;;;;;2.65;0.70;;;11.20;99.90;;;;;;5074723;28;20103;-77
2023/07/26 03:50:22;;;;;;;2.75;1.08;;;11.20;99.90;;;;;;5074670;28;20506;-76
2023/07/26 03:52:47;;;;;;;3.58;0.82;;;11.20;99.90;;;;;;5074450;28;20102;-77
2023/07/26 03:55:14;;;;;;;2.42;0.70;;;11.20;99.90;;;;;;5056322;28;20086;-77
2023/07/26 03:57:40;;;;;;;1.85;1.08;;;11.30;99.90;;;;;;5074309;28;20078;-76
2023/07/26 04:00:08;;;;;;;2.70;1.20;;;12.00;99.90;;;;;;5056437;28;20020;-76
2023/07/26 04:02:34;;;;;;;5.32;1.15;;;;;;;;;;5056351;28;20154;-77
2023/07/26 04:05:00;;;;;;;3.28;1.10;;;11.50;99.90;;;;;;5074253;28;20025;-77
2023/07/26 04:07:26;;;;;;;2.72;1.50;;;11.50;99.90;;;;;;5074716;28;20426;-76
2023/07/26 04:09:51;;;;;;;4.40;1.42;;;11.60;99.90;;;;;;5056218;28;20498;-76
2023/07/26 04:12:17;;;;;;;3.50;1.27;;;11.60;99.90;;;;;;5074563;28;20036;-77
2023/07/26 04:14:42;;;;;;;2.53;1.40;;;11.60;99.90;;;;;;5056068;28;20174;-77
2023/07/26 04:17:08;;;;;;;3.75;1.55;;;11.70;99.90;;;;;;5074002;28;20111;-76
2023/07/26 04:19:34;;;;;;;4.60;1.85;;;11.70;99.90;;;;;;5073907;28;20111;-77
2023/07/26 04:21:59;;;;;;;2.75;1.33;;;11.80;99.90;;;;;;5073969;28;20024;-77
2023/07/26 04:24:25;;;;;;;3.53;1.33;;;11.90;99.90;;;;;;5073699;28;20514;-76
2023/07/26 04:26:52;;;;;;;2.55;1.17;;;11.90;99.90;;;;;;5073751;28;20017;-76
2023/07/26 04:29:18;;;;;;;3.97;0.90;;;11.90;99.90;;;;;;5073775;28;20021;-76
2023/07/26 04:31:43;;;;;;;7.55;1.55;;;11.90;99.90;;;;;;5055792;28;20028;-76
2023/07/26 04:34:09;;;;;;;2.75;1.88;;;11.90;99.90;;;;;;5074130;28;20103;-76
2023/07/26 04:36:35;;;;;;;2.17;1.25;;;11.90;99.90;;;;;;5055008;28;20364;-76
2023/07/26 04:39:01;;;;;;;2.70;1.40;;;12.00;99.90;;;;;;5073547;28;20025;-76
2023/07/26 04:41:26;;;;;;;4.93;1.67;;;12.40;99.90;;;;;;5055574;28;20024;-77
2023/07/26 04:43:52;;;;;;;3.15;1.75;;;12.10;99.90;;;;;;5055577;28;20379;-76
2023/07/26 04:46:17;;;;;;;2.90;1.85;;;12.10;99.90;;;;;;5073479;28;20024;-76
2023/07/26 04:48:43;;;;;;;5.28;1.75;;;12.10;99.90;;;;;;5074338;28;20024;-77
2023/07/26 04:51:10;;;;;;;3.80;1.80;;;12.20;99.90;;;;;;5055545;28;20127;-76
2023/07/26 04:53:36;;;;;;;5.43;2.08;;;12.20;99.90;;;;;;5055325;28;20025;-76
2023/07/26 04:56:02;;;;;;;4.55;1.98;;;12.30;99.90;;;;;;5055414;28;20043;-76
2023/07/26 04:58:27;;;;;;;3.35;1.63;;;12.40;99.90;;;;;;5055311;28;20037;-77
2023/07/26 05:00:53;;;;;;;6.03;2.47;;;12.50;99.90;;;;;;5073214;28;20032;-77
2023/07/26 05:03:18;;;;;;;2.92;1.73;;;12.50;99.90;;;;;;5073177;28;20499;-76
2023/07/26 05:05:50;;;;;;;5.35;1.98;;;13.30;99.90;;;;;;5055684;28;20116;-76
2023/07/26 05:08:16;;;;;;;4.22;1.92;;;12.70;99.90;;;;;;5055283;28;20032;-76
2023/07/26 05:10:41;;;;;;;2.72;1.67;;;12.90;99.90;;;;;;5055253;28;20404;-76
2023/07/26 05:13:07;;;;;;;2.70;1.65;;;13.00;99.90;;;;;;5073061;28;20040;-76
2023/07/26 05:15:33;;;;;;;4.07;2.33;;;13.20;99.90;;;;;;5055188;28;20512;-76
2023/07/26 05:17:58;;;;;;;5.78;2.03;;;13.30;99.90;;;;;;5073108;28;20438;-76
2023/07/26 05:20:24;;;;;;;6.25;1.85;;;13.40;99.90;;;;;;5073593;28;20028;-76
2023/07/26 05:22:50;;;;;;;3.03;1.92;;;13.50;99.90;;;;;;5073077;28;20468;-76
2023/07/26 05:25:15;;;;;;;3.67;1.73;;;13.60;99.90;;;;;;5054912;28;20017;-76
2023/07/26 05:27:41;;;;;;;2.80;1.80;;;13.70;99.90;;;;;;5055181;28;20020;-76
2023/07/26 05:30:07;;;;;;;4.00;2.05;;;13.80;99.90;;;;;;5073619;28;20024;-76
2023/07/26 05:32:33;;;;;;;6.15;2.22;;;13.90;99.90;;;;;;5073613;28;20031;-76
2023/07/26 05:34:59;;;;;;;4.18;2.00;;;14.00;99.90;;;;;;5072839;28;20025;-76
2023/07/26 05:37:24;;;;;;;3.10;1.52;;;14.10;99.90;;;;;;5073036;28;20016;-77
2023/07/26 05:39:51;;;;;;;2.83;1.48;;;14.10;99.90;;;;;;5072960;28;20020;-77
2023/07/26 05:42:17;;;;;;;2.42;1.40;;;14.10;99.90;;;;;;5055323;28;20020;-77
2023/07/26 05:44:43;;;;;;;3.25;1.52;;;14.10;99.90;;;;;;5072945;28;20488;-77
2023/07/26 05:47:10;;;;;;;3.08;1.85;;;14.10;99.90;;;;;;5072891;28;20025;-77
2023/07/26 05:49:36;;;;;;;4.50;1.90;;;14.00;99.90;;;;;;5076137;28;20146;-77
2023/07/26 05:52:01;;;;;;;3.13;1.90;;;13.90;99.90;;;;;;5077012;28;20470;-77
2023/07/26 05:54:27;;;;;;;3.42;1.80;;;13.90;99.90;;;;;;5077256;28;20032;-77
2023/07/26 05:56:53;;;;;;;3.92;1.92;;;13.90;99.90;;;;;;5076613;28;20100;-77
2023/07/26 05:59:18;;;;;;;5.13;2.10;;;13.90;99.90;;;;;;5058703;28;20123;-76
2023/07/26 06:01:44;;;;;;;4.57;1.55;;;13.80;99.90;;;;;;5058705;28;20025;-77
2023/07/26 06:04:09;;;;;;;5.47;1.85;;;13.70;99.90;;;;;;5058597;28;20016;-76
2023/07/26 06:06:35;;;;;;;6.28;2.75;;;13.70;99.90;;;;;;5076499;28;20019;-76
2023/07/26 06:09:01;;;;;;;8.48;2.38;;;13.70;99.90;;;;;;5058552;28;20466;-76
2023/07/26 06:11:26;;;;;;;5.15;2.53;;;13.60;99.90;;;;;;5076437;28;20427;-76
2023/07/26 06:13:53;;;;;;;7.00;2.40;;;13.70;99.90;;;;;;5076262;28;20027;-77
2023/07/26 06:16:19;;;;;;;6.20;2.10;;;13.60;99.90;;;;;;5076393;28;20033;-76
2023/07/26 06:18:45;;;;;;;7.43;2.28;;;13.60;99.90;;;;;;5058341;28;20020;-77
2023/07/26 06:21:11;;;;;;;3.53;2.10;;;13.60;99.90;;;;;;5076121;28;20074;-76
2023/07/26 06:23:37;;;;;;;9.48;3.85;;;13.60;99.90;;;;;;5076076;28;20021;-77
2023/07/26 06:26:03;;;;;;;3.90;1.13;;;13.60;99.90;;;;;;5058277;28;20113;-77
2023/07/26 06:28:29;;;;;;;1.42;0.10;;;13.60;99.90;;;;;;5076084;28;20045;-77
2023/07/26 06:30:56;;;;;;;0.57;0.17;;;13.60;99.90;;;;;;5076073;28;20125;-76
2023/07/26 06:33:21;;;;;;;0.75;0.00;;;13.50;99.90;;;;;;5057954;28;20027;-77
2023/07/26 06:35:47;;;;;;;1.20;0.00;;;13.30;99.90;;;;;;5058059;28;20024;-77
2023/07/26 06:38:13;;;;;;;0.85;0.00;;;13.20;99.90;;;;;;5075957;28;20532;-77
2023/07/26 06:40:38;;;;;;;0.35;0.20;;;13.10;99.90;;;;;;5057973;28;20029;-76
2023/07/26 06:43:05;;;;;;;0.77;0.00;;;13.00;99.90;;;;;;5057902;28;20066;-76
2023/07/26 06:45:31;;;;;;;1.08;0.00;;;12.90;99.90;;;;;;5057799;28;20028;-76
2023/07/26 06:47:57;;;;;;;3.28;0.00;;;12.90;99.90;;;;;;5075809;28;20030;-77
2023/07/26 06:50:23;;;;;;;0.05;0.00;;;12.90;99.90;;;;;;5057812;28;20025;-76
2023/07/26 06:52:48;;;;;;;0.00;0.00;;;12.90;99.90;;;;;;5075640;28;20059;-76
2023/07/26 06:55:14;;;;;;;0.08;0.00;;;12.90;99.90;;;;;;5075583;28;20032;-76
2023/07/26 06:57:40;;;;;;;1.17;0.00;;;13.00;99.90;;;;;;5075441;28;20115;-76
2023/07/26 07:00:08;;;;;;;0.00;0.00;;;13.00;99.90;;;;;;5074517;28;20050;-76
2023/07/26 07:02:33;;;;;;;1.67;0.05;;;13.00;99.90;;;;;;5075467;28;20020;-76
2023/07/26 07:04:59;;;;;;;0.00;0.00;;;13.10;99.90;;;;;;5075704;28;20028;-76
2023/07/26 07:07:25;;;;;;;3.35;0.10;;;13.30;99.90;;;;;;5057470;28;20028;-76
2023/07/26 07:09:50;;;;;;;0.38;0.00;;;13.40;99.90;;;;;;5057394;28;20064;-76
2023/07/26 07:12:16;;;;;;;1.55;0.00;;;13.50;99.90;;;;;;5075303;28;20028;-75
2023/07/26 07:14:42;;;;;;;0.00;0.00;;;13.70;99.90;;;;;;5075210;28;20407;-76
2023/07/26 07:17:08;;;;;;;0.65;0.00;;;14.00;99.90;;;;;;5075212;28;20115;-77
2023/07/26 07:19:34;;;;;;;1.38;0.00;;;14.20;99.90;;;;;;5075078;28;20074;-77
2023/07/26 07:21:59;;;;;;;0.30;0.00;;;14.50;99.90;;;;;;5057221;28;20480;-76
2023/07/26 07:24:25;;;;;;;0.80;0.00;;;14.70;99.90;;;;;;5074975;28;20025;-76
2023/07/26 07:26:51;;;;;;;0.35;0.10;;;15.00;99.90;;;;;;5075000;28;20028;-76
2023/07/26 07:29:16;;;;;;;0.10;0.00;;;15.20;99.90;;;;;;5075518;28;20052;-77
2023/07/26 07:31:42;;;;;;;0.00;0.00;;;15.20;99.90;;;;;;5057078;28;20479;-77
2023/07/26 07:34:08;;;;;;;0.10;0.00;;;15.10;99.90;;;;;;5074828;28;20029;-76
2023/07/26 07:36:33;;;;;;;0.00;0.00;;;15.00;99.90;;;;;;5075450;28;20028;-76
2023/07/26 07:38:59;;;;;;;1.48;0.03;;;15.10;99.90;;;;;;5056826;28;20479;-76
2023/07/26 07:41:24;;;;;;;0.45;0.00;;;15.20;99.90;;;;;;5074624;28;20391;-76
2023/07/26 07:43:50;;;;;;;0.30;0.00;;;15.40;99.90;;;;;;5074873;28;20087;-76
2023/07/26 07:46:15;;;;;;;0.55;0.00;;;15.60;99.90;;;;;;5074583;28;20403;-76
2023/07/26 07:48:42;;;;;;;0.20;0.10;;;15.90;99.90;;;;;;5056550;28;20017;-76
2023/07/26 07:51:07;;;;;;;2.65;0.10;;;16.00;99.90;;;;;;5074456;28;20028;-76
2023/07/26 07:53:33;;;;;;;1.27;0.50;;;16.10;99.90;;;;;;5073135;28;20025;-76
2023/07/26 07:55:58;;;;;;;1.75;0.30;;;16.30;99.90;;;;;;5056413;28;20067;-76
2023/07/26 07:58:26;;;;;;;0.57;0.35;;;16.50;99.90;;;;;;5073920;28;20450;-76
2023/07/26 08:00:57;;;;;;;2.53;0.65;;;16.60;99.90;;;;;;5074203;28;20395;-76
2023/07/26 08:03:23;;;;;;;2.42;0.50;;;16.90;99.90;;;;;;5074279;28;20095;-76
2023/07/26 08:05:50;;;;;;;2.47;0.52;;;16.90;99.90;;;;;;5056340;28;20028;-76
2023/07/26 08:08:16;;;;;;;1.92;0.40;;;17.00;99.90;;;;;;5056225;28;20017;-76
2023/07/26 08:10:42;;;;;;;1.17;0.50;;;17.20;99.90;;;;;;5073981;28;20051;-76
2023/07/26 08:13:07;;;;;;;1.75;0.60;;;17.50;99.90;;;;;;5073994;28;20081;-76
2023/07/26 08:15:36;;;;;;;2.33;0.60;;;17.70;99.90;;;;;;5073861;28;20029;-76
2023/07/26 08:18:01;;;;;;;1.92;1.10;;;17.70;99.90;;;;;;5073977;28;20112;-76
2023/07/26 08:20:31;;;;;;;2.80;0.50;;;17.60;99.90;;;;;;5073871;28;20111;-75
2023/07/26 08:22:56;;;;;;;3.63;1.15;;;17.60;99.90;;;;;;5074057;28;20027;-76
2023/07/26 08:25:24;;;;;;;2.60;0.90;;;17.60;99.90;;;;;;5073686;28;20033;-76
2023/07/26 08:27:49;;;;;;;2.53;0.98;;;17.60;99.90;;;;;;5073681;28;20108;-76
2023/07/26 08:30:15;;;;;;;3.35;1.75;;;17.60;99.90;;;;;;5055897;28;20439;-76
2023/07/26 08:32:41;;;;;;;4.10;1.33;;;17.80;99.90;;;;;;5074397;28;20056;-76
2023/07/26 08:35:07;;;;;;;4.00;1.48;;;18.00;99.90;;;;;;5073887;28;20480;-77
2023/07/26 08:37:32;;;;;;;2.70;0.63;;;18.20;99.90;;;;;;5055832;28;20035;-76
2023/07/26 08:39:58;;;;;;;1.05;0.20;;;18.40;99.90;;;;;;5069825;22;20041;-75
2023/07/26 08:42:23;;;;;;;5.32;0.85;;;18.70;99.90;;;;;;5053723;28;20028;-75
2023/07/26 08:44:50;;;;;;;5.88;1.08;;;18.80;99.90;;;;;;5066952;28;20356;-75
2023/07/26 08:47:18;;;;;;;1.58;0.70;;;19.00;99.90;;;;;;5072157;28;20035;-75
2023/07/26 08:49:44;;;;;;;2.42;0.50;;;19.10;99.90;;;;;;5073976;28;20078;-74
2023/07/26 08:52:10;;;;;;;2.55;0.70;;;19.00;99.90;;;;;;5071997;28;20544;-75
2023/07/26 08:54:36;;;;;;;2.42;0.65;;;18.90;99.90;;;;;;5073853;28;20488;-74
2023/07/26 08:57:02;;;;;;;1.83;0.57;;;18.70;99.90;;;;;;5073266;28;20028;-75
2023/07/26 08:59:27;;;;;;;4.93;1.15;;;18.40;99.90;;;;;;5073188;28;20021;-75
2023/07/26 09:01:55;;;;;;;3.65;0.38;;;18.20;99.90;;;;;;5071988;28;20020;-75
2023/07/26 09:04:22;;;;;;;5.00;0.65;;;18.00;99.90;;;;;;5073114;28;20017;-75
2023/07/26 09:06:48;;;;;;;3.45;0.60;;;17.70;99.90;;;;;;5071836;28;20020;-75
2023/07/26 09:09:14;;;;;;;1.80;0.50;;;17.70;99.90;;;;;;5071843;28;20017;-75
2023/07/26 09:11:51;;;;;;;0.95;0.17;;;17.70;99.90;;;;;;5073116;28;20056;-75
2023/07/26 09:14:17;;;;;;;4.57;1.15;;;17.80;99.90;;;;;;5071753;28;20112;-75
2023/07/26 09:16:43;;;;;;;3.85;0.73;;;17.80;99.90;;;;;;5073199;28;20027;-75
2023/07/26 09:19:09;;;;;;;2.28;0.93;;;17.80;99.90;;;;;;5073021;28;20056;-75
2023/07/26 09:21:36;;;;;;;3.13;0.55;;;17.80;99.90;;;;;;5072945;28;20060;-75
2023/07/26 09:24:05;;;;;;;4.43;0.98;;;17.70;99.90;;;;;;5072360;28;20074;-75
2023/07/26 09:26:39;;;;;;;2.75;0.80;;;17.70;99.90;;;;;;5071694;28;20471;-75
2023/07/26 09:29:08;;;;;;;1.35;0.32;;;17.70;99.90;;;;;;5072962;28;20098;-75
2023/07/26 09:31:35;;;;;;;5.00;0.40;;;17.60;99.90;;;;;;5073013;28;20095;-75
2023/07/26 09:34:06;;;;;;;4.10;0.65;;;17.60;99.90;;;;;;5072872;28;20036;-75
2023/07/26 09:36:43;;;;;;;1.27;0.32;;;17.50;99.90;;;;;;5073190;28;20039;-75
2023/07/26 09:39:09;;;;;;;2.40;0.50;;;17.40;99.90;;;;;;5072718;28;20040;-75
2023/07/26 09:41:35;;;;;;;7.60;0.45;;;17.60;99.90;;;;;;5072857;28;20108;-75
2023/07/26 09:44:01;;;;;;;1.00;0.40;;;17.80;99.90;;;;;;5073271;28;20040;-74
2023/07/26 09:46:26;;;;;;;2.90;0.82;;;18.20;99.90;;;;;;5073065;28;20032;-75
2023/07/26 09:49:00;;;;;;;3.78;0.98;;;18.70;99.90;;;;;;5073343;28;20029;-74
2023/07/26 09:51:29;;;;;;;2.28;0.22;;;19.00;99.90;;;;;;5072828;28;20024;-75
2023/07/26 09:53:57;;;;;;;1.27;0.20;;;19.20;99.90;;;;;;5071583;28;20030;-74
2023/07/26 09:56:24;;;;;;;0.30;0.20;;;19.50;99.90;;;;;;5073231;28;20095;-75
2023/07/26 09:58:50;;;;;;;0.70;0.10;;;19.80;99.90;;;;;;5072724;28;20111;-74
2023/07/26 10:01:19;;;;;;;1.38;0.00;;;20.30;99.90;;;;;;5071479;28;20056;-75
2023/07/26 10:03:48;;;;;;;1.55;0.03;;;20.70;99.90;;;;;;5072668;28;20017;-75
2023/07/26 10:06:15;;;;;;;3.08;0.15;;;20.80;99.90;;;;;;5072624;28;20078;-75
2023/07/26 10:08:42;;;;;;;2.08;0.13;;;20.60;99.90;;;;;;5072672;28;20112;-75
2023/07/26 10:11:09;;;;;;;1.20;0.00;;;20.20;99.90;;;;;;5072649;28;20024;-75
2023/07/26 10:13:37;;;;;;;0.40;0.20;;;19.90;99.90;;;;;;5071303;28;20033;-74
2023/07/26 10:16:04;;;;;;;1.90;0.20;;;19.80;99.90;;;;;;5072597;28;20025;-75
2023/07/26 10:18:32;;;;;;;1.88;0.00;;;19.60;99.90;;;;;;5071352;28;20024;-75
2023/07/26 10:21:01;;;;;;;5.28;0.30;;;19.70;99.90;;;;;;5073098;28;20024;-75
2023/07/26 10:23:28;;;;;;;0.40;0.10;;;19.80;99.90;;;;;;5072452;28;20017;-75
2023/07/26 10:25:55;;;;;;;4.68;0.52;;;20.10;99.90;;;;;;5072858;28;20017;-76
2023/07/26 10:28:21;;;;;;;0.85;0.17;;;20.40;99.90;;;;;;5072996;28;20017;-75
2023/07/26 10:30:48;;;;;;;1.40;0.25;;;20.80;99.90;;;;;;5072513;28;20050;-75
2023/07/26 10:33:14;;;;;;;1.42;0.10;;;21.00;99.90;;;;;;5072386;28;20391;-74
2023/07/26 10:35:42;;;;;;;1.42;0.00;;;21.20;99.90;;;;;;5073834;28;20024;-75
2023/07/26 10:38:08;;;;;;;2.65;0.47;;;21.10;99.90;;;;;;5075965;28;20027;-74
2023/07/26 10:40:37;;;;;;;2.05;0.22;;;21.40;99.90;;;;;;5075671;28;20024;-74
2023/07/26 10:43:21;;;;;;;0.30;0.20;;;21.20;99.90;;;;;;5076403;28;20090;-75
2023/07/26 10:45:55;;;;;;;3.50;0.10;;;20.90;99.90;;;;;;5074669;28;20486;-74
2023/07/26 10:48:27;;;;;;;3.30;0.50;;;21.00;99.90;;;;;;5075787;28;20017;-75
2023/07/26 10:50:57;;;;;;;2.10;0.10;;;21.20;99.90;;;;;;5075831;28;20031;-74
2023/07/26 10:53:37;;;;;;;0.88;0.15;;;21.00;99.90;;;;;;5075619;28;20094;-75
2023/07/26 10:56:17;;;;;;;1.30;0.47;;;21.00;99.90;;;;;;5075598;28;20024;-75
2023/07/26 10:59:15;;;;;;;1.65;0.30;;;21.10;99.90;;;;;;5075610;28;20059;-74
2023/07/26 11:01:45;;;;;;;3.53;0.43;;;21.10;99.90;;;;;;5070347;28;20036;-75
2023/07/26 11:04:14;;;;;;;0.10;0.00;;;20.90;99.90;;;;;;5075579;28;20555;-75
2023/07/26 11:06:50;;;;;;;3.33;0.45;;;20.70;99.90;;;;;;5075499;28;20027;-75
2023/07/26 11:09:30;;;;;;;2.28;0.30;;;20.80;99.90;;;;;;5075373;28;20384;-75
2023/07/26 11:12:13;;;;;;;3.08;0.00;;;20.70;99.90;;;;;;5075643;28;20526;-75
2023/07/26 11:14:39;;;;;;;1.10;0.20;;;21.20;99.90;;;;;;5075308;28;20028;-75
2023/07/26 11:17:11;;;;;;;2.25;0.10;;;21.60;99.90;;;;;;5074111;28;20023;-74
2023/07/26 11:19:48;;;;;;;1.00;0.30;;;21.80;99.90;;;;;;5075692;28;20031;-75
2023/07/26 11:22:14;;;;;;;0.70;0.30;;;22.00;99.90;;;;;;5075268;28;20538;-75
2023/07/26 11:24:40;;;;;;;1.02;0.20;;;22.30;99.90;;;;;;5073720;28;20135;-75
2023/07/26 11:27:07;;;;;;;0.22;0.03;;;22.50;99.90;;;;;;5073713;28;20471;-76
2023/07/26 11:29:33;;;;;;;1.33;0.00;;;22.50;99.90;;;;;;5074998;28;20433;-75
2023/07/26 11:31:59;;;;;;;0.25;0.15;;;22.40;99.90;;;;;;5074939;28;20048;-75
2023/07/26 11:34:25;;;;;;;1.23;0.00;;;22.10;99.90;;;;;;5074882;28;20052;-75
2023/07/26 11:36:50;;;;;;;1.20;0.00;;;21.80;99.90;;;;;;5073596;28;20471;-75
2023/07/26 11:39:20;;;;;;;0.85;0.00;;;21.50;99.90;;;;;;5074794;28;20037;-74
2023/07/26 11:41:46;;;;;;;5.25;1.30;;;21.30;99.90;;;;;;5073542;28;20029;-75
2023/07/26 11:44:13;;;;;;;2.22;0.20;;;21.00;99.90;;;;;;5073296;28;20066;-75
2023/07/26 11:46:42;;;;;;;0.40;0.10;;;20.70;99.90;;;;;;5074135;28;20028;-75
2023/07/26 11:49:10;;;;;;;1.15;0.15;;;20.70;99.90;;;;;;5074697;28;20434;-75
2023/07/26 11:51:36;;;;;;;1.30;0.38;;;21.10;99.90;;;;;;5073340;28;20020;-75
2023/07/26 11:54:02;;;;;;;1.35;0.45;;;21.40;99.90;;;;;;5073109;28;20487;-75
2023/07/26 11:56:30;;;;;;;0.57;0.10;;;21.60;99.90;;;;;;5074473;28;20510;-75
2023/07/26 11:58:58;;;;;;;3.95;0.13;;;21.90;99.90;;;;;;5074587;28;20028;-75
2023/07/26 12:01:24;;;;;;;1.88;0.20;;;22.40;99.90;;;;;;5074323;28;20035;-75
2023/07/26 12:03:51;;;;;;;0.70;0.10;;;22.50;99.90;;;;;;5073118;28;20008;-76
2023/07/26 12:06:19;;;;;;;0.30;0.10;;;22.50;99.90;;;;;;5074365;28;20048;-74
2023/07/26 12:08:47;;;;;;;1.45;0.30;;;22.50;99.90;;;;;;5074681;28;20490;-76
2023/07/26 12:11:17;;;;;;;0.88;0.08;;;22.40;99.90;;;;;;5074251;28;20479;-74
2023/07/26 12:13:43;;;;;;;1.33;0.10;;;22.70;99.90;;;;;;5074125;28;20035;-75
2023/07/26 12:16:09;;;;;;;1.35;0.10;;;23.20;99.90;;;;;;5074069;28;20131;-75
2023/07/26 12:18:35;;;;;;;1.17;0.20;;;23.80;99.90;;;;;;5074099;28;20103;-75
2023/07/26 12:21:04;;;;;;;2.15;0.10;;;24.00;99.90;;;;;;5073962;28;20033;-75
2023/07/26 12:23:49;;;;;;;0.73;0.00;;;23.70;99.20;;;;;;5073798;28;20025;-75
2023/07/26 12:26:15;;;;;;;2.00;0.35;;;23.90;99.50;;;;;;5072818;28;20017;-75
2023/07/26 12:28:42;;;;;;;1.33;0.22;;;24.00;99.80;;;;;;5074315;28;20048;-75
2023/07/26 12:31:07;;;;;;;1.85;0.32;;;24.10;98.90;;;;;;5073924;28;20028;-75
2023/07/26 12:33:35;;;;;;;0.90;0.10;;;24.10;97.10;;;;;;5072540;28;20067;-75
2023/07/26 12:36:00;;;;;;;2.23;0.10;;;24.40;99.50;;;;;;5073700;28;20554;-76
2023/07/26 12:38:26;;;;;;;0.80;0.32;;;24.70;98.50;;;;;;5073697;28;20108;-75
2023/07/26 12:40:52;;;;;;;0.20;0.10;;;25.20;97.00;;;;;;5073491;28;20394;-75
2023/07/26 12:43:28;;;;;;;3.83;0.52;;;25.20;97.50;;;;;;5073638;28;20048;-75
2023/07/26 12:45:58;;;;;;;0.10;0.00;;;25.10;98.00;;;;;;5073724;28;20051;-76